Wildwood Lake, Indiana
Current Conditions -  °F | °C
As of 5:15 AM on Tuesday 27 Jan 2015 (Local Time) from KHNB Reporting Station
Overcast Overcast  
Wind Chill: -1°   Ceiling: 400
Heat Index: -1°   Visibility: 5mi
Dew Point: -3°   Wind: 3mph
Humidity: 86%   Direction: 70°ENE
Pressure: 29.92"   Gusts: NA
Location:  38.5454°N, 86.4243°W
Report Text: KHNB 271015Z AUTO 07003KT 5SM OVC004 M01/M03 A2992 RMK AO1
Loading
Personal Weather Stations






























Interactive Weather Map New forecast layout! Learn more

10-Day Weather Forecast

Advertisements
Track Severe Weather on mobile